Latest Coastal Weather Observations for Port Hedland

IDW60701

Issued at 6:55 am WST Wednesday 30 July 2014 (issued every 10 minutes, with the page automatically refreshed every 10 minutes)

About coastal observations | Map of coastal stations | Coastal observations for WA | Marine services | Other Formats
Station Details ID: 004032 Name: PORT HEDLAND AIRPORT Lat: -20.37 Lon: 118.63 Height: 6.4 m
Data from the previous 72 hours. | See also: Recent months at Port Hedland
Date/Time
WST
Temp

°C
Wind Pressure Rain
since 9am
mm
Weather Cloud Vis
km
Sea
Height
m
Swell
Dir
 
Speed
knots
Gust
knots
hPa Trend Height
m
Period
s
Dir
30/06:30am 20.2 SE 8 11 1018.0 - 0.0 - Partly cloudy 10 - - - -
30/06:00am 19.1 SE 9 11 1017.7 F 0.0 Fine Partly cloudy 30 - - - -
30/05:30am 20.1 SE 9 11 1017.6 - 0.0 - Partly cloudy 10 - - - -
30/05:00am 19.3 SE 7 8 1017.3 - 0.0 - Partly cloudy 10 - - - -
30/04:30am 18.6 SE 7 9 1017.1 - 0.0 - Partly cloudy 10 - - - -
30/04:00am 18.1 SE 6 8 1017.1 - 0.0 - Partly cloudy 10 - - - -
30/03:30am 18.7 SSE 6 8 1017.1 - 0.0 - - 10 - - - -
30/03:00am 18.5 SSE 6 8 1017.2 - 0.0 - - 10 - - - -
30/02:30am 19.3 SSE 8 11 1017.3 - 0.0 - - 10 - - - -
30/02:00am 18.9 SSE 8 9 1017.5 - 0.0 - Partly cloudy 10 - - - -
30/01:30am 18.8 SE 4 6 1017.8 - 0.0 - Partly cloudy 10 - - - -
30/01:00am 19.9 SSE 6 8 1017.8 - 0.0 - Partly cloudy 10 - - - -
30/12:30am 20.7 SSE 7 8 1017.7 - 0.0 - Cloudy 10 - - - -
30/12:00am 20.7 SSE 7 8 1017.8 - 0.0 - Mostly cloudy 10 - - - -
 
Date/Time
WST
Temp

°C
Wind Pressure Rain
since 9am
mm
Weather Cloud Vis
km
Sea
Height
m
Swell
Dir
 
Speed
knots
Gust
knots
hPa Trend Height
m
Period
s
Dir
29/11:30pm 20.7 S 7 9 1017.8 - 0.0 - Partly cloudy 10 - - - -
29/11:00pm 20.4 S 7 8 1017.9 - 0.0 - Partly cloudy 10 - - - -
29/10:30pm 21.3 S 7 11 1018.0 - 0.0 - Partly cloudy 10 - - - -
29/10:00pm 21.6 S 7 8 1018.1 - 0.0 - Partly cloudy 10 - - - -
29/09:30pm 21.6 S 7 8 1018.0 - 0.0 - - 10 - - - -
29/09:00pm 22.3 S 7 9 1018.0 - 0.0 - - 10 - - - -
29/08:30pm 22.5 SSE 9 9 1017.9 - 0.0 - - 10 - - - -
29/08:00pm 24.4 SSE 7 10 1017.8 - 0.0 - - 10 - - - -
29/07:30pm 24.5 SSE 8 10 1017.5 - 0.0 - - 10 - - - -
29/07:00pm 24.6 SSE 7 8 1017.4 - 0.0 - - 10 - - - -
29/06:30pm 26.6 ESE 6 7 1017.2 - 0.0 - - 10 - - - -
29/06:00pm 27.0 ESE 6 7 1017.0 - 0.0 - - 10 - - - -
29/05:30pm 28.6 ESE 7 8 1016.9 - 0.0 - - 10 - - - -
29/05:00pm 30.5 E 9 13 1016.7 - 0.0 - - 10 - - - -
29/04:30pm 31.2 ESE 9 13 1016.5 - 0.0 - - 10 - - - -
29/04:00pm 31.9 E 9 14 1016.3 - 0.0 - - 10 - - - -
29/03:30pm 31.7 E 12 16 1016.4 - 0.0 - Partly cloudy 10 - - - -
29/03:00pm 31.6 E 11 17 1016.5 R 0.0 Fine Partly cloudy 30 - - - -
29/02:30pm 32.2 E 11 16 1016.6 - 0.0 - Partly cloudy 10 - - - -
29/02:00pm 32.0 E 15 18 1016.8 - 0.0 - Partly cloudy 10 - - - -
29/01:30pm 31.7 E 12 16 1017.1 - 0.0 - Partly cloudy 10 - - - -
29/01:00pm 31.6 E 15 22 1017.4 - 0.0 - Partly cloudy 10 - - - -
29/12:30pm 31.1 E 17 22 1017.9 - 0.0 - Partly cloudy 10 - - - -
29/12:00pm 30.3 E 18 23 1018.3 R 0.0 Fine Partly cloudy 30 - - - -
29/11:30am 30.6 E 17 23 1018.6 - 0.0 - Partly cloudy 10 - - - -
29/11:00am 29.2 E 20 25 1018.9 - 0.0 - Partly cloudy 10 - - - -
29/10:30am 28.8 E 18 26 1019.1 - 0.0 - Partly cloudy 10 - - - -
29/10:00am 27.5 E 17 23 1019.3 - 0.0 - Partly cloudy 10 - - - -
29/09:30am 25.6 ESE 13 18 1019.5 - 0.0 - Partly cloudy 10 - - - -
29/09:00am 24.7 ESE 11 15 1019.3 R 0.0 Fine Partly cloudy 30 - - - -
29/08:30am 22.3 SE 6 8 1019.2 - 0.0 - Cloudy 10 - - - -
29/08:00am 19.4 SSE 5 7 1018.8 - 0.0 - Cloudy 10 - - - -
29/07:30am 16.7 S 2 4 1018.5 - 0.0 - Cloudy 10 - - - -
29/07:00am 14.4 SW 4 6 1018.1 - 0.0 - Cloudy 10 - - - -
29/06:30am 14.2 SSW 4 6 1017.6 - 0.0 - Partly cloudy 10 - - - -
29/06:00am 14.0 E 3 4 1017.3 F 0.0 Fine Mostly cloudy 30 - - - -
29/05:30am 14.9 E 4 5 1017.2 - 0.0 - Partly cloudy 10 - - - -
29/05:00am 16.2 S 6 8 1016.9 - 0.0 - - 10 - - - -
29/04:30am 15.2 S 5 8 1016.7 - 0.0 - - 10 - - - -
29/04:00am 14.8 SSW 5 6 1016.9 - 0.0 - - 10 - - - -
29/03:30am 15.0 SW 5 6 1016.9 - 0.0 - - 10 - - - -
29/03:00am 15.0 SW 4 5 1017.1 - 0.0 - - 10 - - - -
29/02:30am 16.8 ENE 4 9 1017.3 - 0.0 - - 10 - - - -
29/02:00am 15.8 SW 4 5 1017.6 - 0.0 - Partly cloudy 10 - - - -
29/01:30am 16.5 ESE 4 7 1017.8 - 0.0 - Cloudy 10 - - - -
29/01:00am 16.9 ESE 3 4 1017.6 - 0.0 - Partly cloudy 10 - - - -
29/12:30am 19.2 S 7 10 1017.6 - 0.0 - Partly cloudy 10 - - - -
29/12:00am 19.3 SSE 5 8 1017.7 - 0.0 - Mostly cloudy 10 - - - -
 
Date/Time
WST
Temp

°C
Wind Pressure Rain
since 9am
mm
Weather Cloud Vis
km
Sea
Height
m
Swell
Dir
 
Speed
knots
Gust
knots
hPa Trend Height
m
Period
s
Dir
28/11:30pm 19.6 S 7 9 1017.9 - 0.0 - Partly cloudy 10 - - - -
28/11:00pm 19.6 S 7 9 1017.9 - 0.0 - Partly cloudy 10 - - - -
28/10:30pm 19.6 SSW 7 9 1017.9 - 0.0 - Partly cloudy 10 - - - -
28/10:00pm 20.9 S 8 9 1018.1 - 0.0 - Partly cloudy 10 - - - -
28/09:30pm 21.3 S 6 7 1018.0 - 0.0 - - 10 - - - -
28/09:00pm 19.4 SSW 6 7 1017.9 - 0.0 - - 10 - - - -
28/08:30pm 19.5 WSW 8 9 1017.9 - 0.0 - Partly cloudy 10 - - - -
28/08:00pm 20.4 W 7 7 1017.8 - 0.0 - Partly cloudy 10 - - - -
28/07:30pm 21.8 W 5 7 1017.5 - 0.0 - Partly cloudy 10 - - - -
28/07:00pm 22.7 CALM 0 0 1017.2 - 0.0 - Partly cloudy 10 - - - -
28/06:30pm 23.3 E 1 3 1016.8 - 0.0 - Partly cloudy 10 - - - -
28/06:00pm 26.3 E 2 3 1016.4 - 0.0 - - 10 - - - -
28/05:30pm 28.8 SSE 6 9 1016.1 - 0.0 - - 10 - - - -
28/05:00pm 30.1 SSE 6 8 1015.7 - 0.0 - - 10 - - - -
28/04:30pm 30.5 S 5 8 1015.7 - 0.0 - - 10 - - - -
28/04:00pm 30.6 SE 5 8 1015.6 - 0.0 - - 10 - - - -
28/03:30pm 30.6 NNE 3 8 1015.9 - 0.0 - - 10 - - - -
28/03:00pm 30.8 N 6 9 1016.2 F 0.0 Fine Clear 30 - - - -
28/02:30pm 30.7 NNE 7 9 1016.4 - 0.0 - - 10 - - - -
28/02:00pm 30.1 NNE 6 9 1016.8 - 0.0 - - 10 - - - -
28/01:30pm 30.3 NNE 7 11 1017.2 - 0.0 - - 10 - - - -
28/01:00pm 30.1 NE 6 9 1017.6 - 0.0 - - 10 - - - -
28/12:30pm 29.2 NNE 5 10 1018.2 - 0.0 - - 10 - - - -
28/12:00pm 29.5 ENE 6 11 1018.6 F 0.0 Fine Clear 30 - - - -
28/11:30am 28.6 ENE 6 11 1019.1 - 0.0 - - 10 - - - -
28/11:00am 29.7 ESE 10 15 1019.7 - 0.0 - - 10 - - - -
28/10:30am 28.4 SSE 10 14 1019.9 - 0.0 - - 10 - - - -
28/10:00am 27.5 SE 7 11 1020.2 - 0.0 - - 10 - - - -
28/09:30am 26.3 SE 9 14 1020.4 - 0.0 - - 10 - - - -
28/09:00am 24.8 SE 9 12 1020.1 R 0.0 Fine Clear 30 - - - -
28/08:30am 22.8 SSE 11 14 1019.8 - 0.0 - - 10 - - - -
28/08:00am 20.6 SSE 9 12 1019.5 - 0.0 - - 10 - - - -
28/07:30am 17.2 SSE 8 10 1019.2 - 0.0 - - 10 - - - -
28/07:00am 14.6 S 7 8 1019.0 - 0.0 - - 10 - - - -
28/06:30am 13.3 S 6 7 1018.7 - 0.0 - - 10 - - - -
28/06:00am 14.0 S 6 7 1018.4 S 0.0 Fine Clear 30 - - - -
28/05:30am 14.8 S 6 7 1018.2 - 0.0 - - 10 - - - -
28/05:00am 14.9 SSE 7 8 1017.9 - 0.0 - - 10 - - - -
28/04:30am 14.8 S 8 10 1017.8 - 0.0 - - 10 - - - -
28/04:00am 15.1 S 5 7 1017.8 - 0.0 - - 10 - - - -
28/03:30am 14.1 ESE 4 5 1017.8 - 0.0 - - 10 - - - -
28/03:00am 15.9 S 7 9 1017.8 - 0.0 - - 10 - - - -
28/02:30am 16.0 SSW 9 10 1017.9 - 0.0 - - 10 - - - -
28/02:00am 14.9 SSW 6 7 1018.1 - 0.0 - - 10 - - - -
28/01:30am 15.2 WSW 4 6 1018.3 - 0.0 - - 10 - - - -
28/01:00am 16.2 SW 7 8 1018.6 - 0.0 - - 10 - - - -
28/12:30am 17.2 SW 8 9 1019.0 - 0.0 - - 10 - - - -
28/12:00am 16.6 SW 8 9 1019.1 - 0.0 - - 10 - - - -
 
Date/Time
WST
Temp

°C
Wind Pressure Rain
since 9am
mm
Weather Cloud Vis
km
Sea
Height
m
Swell
Dir
 
Speed
knots
Gust
knots
hPa Trend Height
m
Period
s
Dir
27/11:30pm 16.9 SSW 8 9 1019.1 - 0.0 - - 10 - - - -
27/11:00pm 16.3 WSW 5 7 1019.4 - 0.0 - - 10 - - - -
27/10:30pm 17.6 WSW 3 6 1019.6 - 0.0 - - 10 - - - -
27/10:00pm 17.3 SW 5 7 1019.4 - 0.0 - - 10 - - - -
27/09:30pm 17.6 SW 7 8 1019.4 - 0.0 - - 10 - - - -
27/09:00pm 17.4 WSW 7 8 1019.4 - 0.0 - - 10 - - - -
27/08:30pm 18.3 WSW 7 8 1019.4 - 0.0 - - 10 - - - -
27/08:00pm 19.1 WSW 9 9 1019.1 - 0.0 - - 10 - - - -
27/07:30pm 20.5 SW 6 7 1018.8 - 0.0 - - 10 - - - -
27/07:00pm 21.4 WSW 4 5 1018.3 - 0.0 - - 10 - - - -
27/06:30pm 22.2 W 5 6 1018.1 - 0.0 - - 10 - - - -
27/06:00pm 24.1 N 6 7 1017.7 - 0.0 - - 10 - - - -
27/05:30pm 25.5 N 7 8 1017.6 - 0.0 - - 10 - - - -
27/05:00pm 28.0 N 6 8 1017.4 - 0.0 - - 10 - - - -
27/04:30pm 28.8 N 7 9 1017.3 - 0.0 - - 10 - - - -
27/04:00pm 28.8 NNE 8 10 1017.2 - 0.0 - - 10 - - - -
27/03:30pm 29.4 NNE 8 10 1016.9 - 0.0 - - 10 - - - -
27/03:00pm 29.8 NNE 7 9 1017.0 - 0.0 - - 10 - - - -
27/02:30pm 30.0 NNE 6 9 1017.1 - 0.0 - - 10 - - - -
27/02:00pm 30.1 ENE 7 10 1017.3 - 0.0 - - 10 - - - -
27/01:30pm 30.0 ENE 6 10 1017.7 - 0.0 - - 10 - - - -
27/01:00pm 28.8 E 7 11 1018.3 - 0.0 - - 10 - - - -
27/12:30pm 29.3 ENE 9 15 1019.0 - 0.0 - - 10 - - - -
27/12:00pm 28.8 ENE 12 17 1019.5 - 0.0 - - 10 - - - -
27/11:30am 28.7 ENE 11 14 1020.0 - 0.0 - - 10 - - - -
27/11:00am 28.1 E 11 16 1020.3 - 0.0 - - 10 - - - -
27/10:30am 27.1 E 11 15 1020.9 - 0.0 - - 10 - - - -
27/10:00am 26.5 ESE 10 14 1021.1 - 0.0 - - 10 - - - -
27/09:30am 25.0 ESE 10 14 1021.4 - 0.0 - - 10 - - - -
27/09:00am 23.3 ESE 11 15 1021.6 - 0.0 - - 10 - - - -
27/08:30am 21.0 SE 7 10 1021.3 - 0.0 - - 10 - - - -
27/08:00am 17.8 SSE 6 8 1021.0 - 0.0 - - 10 - - - -
27/07:30am 14.5 S 7 8 1020.6 - 0.0 - - 10 - - - -
27/07:00am 12.1 S 7 9 1020.3 - 0.0 - - 10 - - - -

Other Formats:

Comma delimited format used in spreadsheet applications
http://www.bom.gov.au/fwo/IDW60701/IDW60701.94312.axf

JavaScript Object Notation format (JSON) in row-major order
http://www.bom.gov.au/fwo/IDW60701/IDW60701.94312.json